Time;durP1;ratioP1;P1;durP2;ratioP2;P2;SDS_P1;SDS_P2;PMS_P1;PMS_P2;Temp;Humidity;BMP_temperature;BMP_pressure;BME280_temperature;BME280_humidity;BME280_pressure;Samples;Min_cycle;Max_cycle;Signal;HPM_P1;HPM_P2
2023/06/05 00:00:23;;;;;;;0.40;0.40;;;10.90;1.00;;;;;;4858418;29;20073;-86
2023/06/05 00:02:49;;;;;;;0.38;0.38;;;10.80;1.00;;;;;;4860190;29;20477;-86
2023/06/05 00:05:15;;;;;;;0.53;0.43;;;10.80;1.00;;;;;;4846341;29;20053;-86
2023/06/05 00:07:41;;;;;;;0.40;0.40;;;10.80;1.00;;;;;;4845820;29;20057;-86
2023/06/05 00:10:08;;;;;;;0.30;0.30;;;10.80;1.00;;;;;;4844287;29;20054;-86
2023/06/05 00:12:34;;;;;;;0.47;0.47;;;10.80;1.00;;;;;;4860027;29;20481;-86
2023/06/05 00:15:01;;;;;;;0.43;0.43;;;10.70;1.00;;;;;;4854805;29;20065;-85
2023/06/05 00:17:27;;;;;;;;;;;10.70;1.00;;;;;;4861522;29;20488;-87
2023/06/05 00:19:53;;;;;;;0.30;0.30;;;10.60;1.00;;;;;;4858530;29;19931;-85
2023/06/05 00:22:20;;;;;;;0.63;0.63;;;10.60;1.00;;;;;;4860745;29;20053;-85
2023/06/05 00:24:46;;;;;;;0.38;0.38;;;10.60;1.00;;;;;;4847908;29;20394;-86
2023/06/05 00:27:11;;;;;;;0.37;0.30;;;10.50;1.00;;;;;;4854947;29;20052;-85
2023/06/05 00:29:37;;;;;;;0.40;0.40;;;10.50;1.00;;;;;;4841144;29;20045;-86
2023/06/05 00:32:03;;;;;;;0.17;0.17;;;10.50;1.00;;;;;;4844914;29;20053;-86
2023/06/05 00:34:29;;;;;;;0.20;0.10;;;10.50;1.00;;;;;;4844870;29;20049;-86
2023/06/05 00:36:55;;;;;;;0.43;0.43;;;9.70;1.00;;;;;;4844697;29;20049;-85
2023/06/05 00:39:20;;;;;;;0.40;0.30;;;10.40;1.00;;;;;;4844744;29;20041;-85
2023/06/05 00:41:46;;;;;;;0.60;0.50;;;10.40;1.00;;;;;;4859583;29;20052;-85
2023/06/05 00:44:12;;;;;;;0.40;0.37;;;10.30;1.00;;;;;;4814367;29;20105;-86
2023/06/05 00:46:39;;;;;;;0.30;0.17;;;10.30;1.00;;;;;;4851292;29;20110;-86
2023/06/05 00:49:06;;;;;;;0.63;0.50;;;10.30;1.00;;;;;;4844785;29;20053;-86
2023/06/05 00:51:32;;;;;;;0.30;0.30;;;10.20;1.00;;;;;;4855642;29;20040;-87
2023/06/05 00:53:58;;;;;;;0.23;0.23;;;10.20;1.00;;;;;;4867916;29;20484;-86
2023/06/05 00:56:24;;;;;;;0.50;0.50;;;10.20;1.00;;;;;;4839158;29;20485;-86
2023/06/05 00:58:52;;;;;;;0.20;0.20;;;10.20;1.00;;;;;;4841749;29;20042;-86
2023/06/05 01:01:20;;;;;;;0.45;0.45;;;10.10;1.00;;;;;;4858763;29;20053;-85
2023/06/05 01:03:47;;;;;;;0.30;0.30;;;10.10;1.00;;;;;;4839311;29;20121;-86
2023/06/05 01:06:16;;;;;;;1.02;1.02;;;10.10;1.00;;;;;;4842159;29;20458;-86
2023/06/05 01:08:42;;;;;;;1.08;0.57;;;10.00;1.00;;;;;;4856701;29;20057;-85
2023/06/05 01:11:23;;;;;;;0.20;0.20;;;10.00;1.00;;;;;;4843516;29;20103;-85
2023/06/05 01:14:22;;;;;;;0.20;0.20;;;10.40;1.00;;;;;;4852463;29;20305;-85
2023/06/05 01:16:56;;;;;;;0.20;0.20;;;10.00;1.00;;;;;;4831304;29;20071;-85
2023/06/05 01:19:28;;;;;;;0.20;0.20;;;10.00;1.00;;;;;;4853768;29;20080;-86
2023/06/05 01:21:55;;;;;;;0.47;0.47;;;10.00;1.00;;;;;;4857552;29;20912;-85
2023/06/05 01:24:22;;;;;;;0.30;0.30;;;10.00;1.00;;;;;;4845472;29;20086;-84
2023/06/05 01:27:17;;;;;;;0.55;0.40;;;10.00;1.00;;;;;;4857235;29;20044;-85
2023/06/05 01:30:02;;;;;;;0.40;0.40;;;9.90;1.00;;;;;;4848798;29;20064;-86
2023/06/05 01:32:44;;;;;;;0.47;0.47;;;10.00;1.00;;;;;;4856590;29;20544;-85
2023/06/05 01:35:16;;;;;;;0.55;0.55;;;9.90;1.00;;;;;;4857938;29;20056;-86
2023/06/05 01:37:48;;;;;;;0.65;0.50;;;10.00;1.00;;;;;;4856210;29;20049;-85
2023/06/05 01:40:16;;;;;;;0.45;0.40;;;9.90;1.00;;;;;;4842069;29;20606;-86
2023/06/05 01:42:44;;;;;;;0.38;0.38;;;9.90;1.00;;;;;;4841598;29;20053;-86
2023/06/05 01:45:11;;;;;;;0.30;0.30;;;10.00;1.00;;;;;;4850179;29;20045;-85
2023/06/05 01:47:38;;;;;;;0.50;0.40;;;10.00;1.00;;;;;;4837083;29;20053;-85
2023/06/05 01:50:07;;;;;;;0.30;0.30;;;10.00;1.00;;;;;;4843372;29;20057;-85
2023/06/05 01:52:34;;;;;;;1.33;0.77;;;10.60;1.00;;;;;;4851952;29;20045;-85
2023/06/05 01:55:02;;;;;;;0.35;0.35;;;10.00;1.00;;;;;;4849834;29;20326;-85
2023/06/05 01:57:28;;;;;;;0.40;0.40;;;10.00;1.00;;;;;;4859212;29;20501;-85
2023/06/05 01:59:55;;;;;;;0.85;0.63;;;10.10;1.00;;;;;;4842561;29;20101;-86
2023/06/05 02:02:21;;;;;;;0.50;0.50;;;10.10;1.00;;;;;;4854244;29;20049;-86
2023/06/05 02:04:53;;;;;;;0.68;0.57;;;10.10;1.00;;;;;;4843729;29;20045;-86
2023/06/05 02:07:21;;;;;;;1.73;0.85;;;10.20;1.00;;;;;;4833543;29;20136;-86
2023/06/05 02:09:46;;;;;;;0.65;0.65;;;10.30;1.00;;;;;;4838507;29;20057;-86
2023/06/05 02:12:14;;;;;;;1.27;0.50;;;10.30;1.00;;;;;;4829005;29;20106;-85
2023/06/05 02:14:44;;;;;;;0.77;0.77;;;10.30;1.00;;;;;;4857829;29;20041;-86
2023/06/05 02:17:13;;;;;;;0.95;0.73;;;10.40;1.00;;;;;;4849107;29;20061;-86
2023/06/05 02:19:40;;;;;;;0.47;0.47;;;10.40;1.00;;;;;;4854344;29;20049;-85
2023/06/05 02:22:06;;;;;;;0.35;0.35;;;10.50;1.00;;;;;;4858047;29;20128;-85
2023/06/05 02:24:32;;;;;;;0.88;0.47;;;10.50;1.00;;;;;;4842765;29;20120;-86
2023/06/05 02:26:57;;;;;;;0.90;0.60;;;10.50;1.00;;;;;;4842724;29;20068;-85
2023/06/05 02:29:23;;;;;;;0.50;0.30;;;10.60;1.00;;;;;;4845065;29;20100;-85
2023/06/05 02:31:49;;;;;;;0.40;0.40;;;10.60;1.00;;;;;;4856492;29;20061;-86
2023/06/05 02:34:16;;;;;;;0.53;0.53;;;10.60;1.00;;;;;;4837050;29;20068;-85
2023/06/05 02:36:45;;;;;;;0.60;0.45;;;10.60;1.00;;;;;;4850093;29;20053;-85
2023/06/05 02:39:12;;;;;;;0.35;0.35;;;10.60;1.00;;;;;;4860338;29;20050;-85
2023/06/05 02:41:38;;;;;;;;;;;10.70;1.00;;;;;;4845367;29;20085;-86
2023/06/05 02:44:03;;;;;;;0.65;0.38;;;10.60;1.00;;;;;;4844102;29;20000;-85
2023/06/05 02:46:29;;;;;;;0.47;0.47;;;10.70;1.00;;;;;;4858179;29;20041;-85
2023/06/05 02:48:55;;;;;;;0.50;0.50;;;10.70;1.00;;;;;;4823179;29;20053;-85
2023/06/05 02:51:23;;;;;;;0.30;0.30;;;10.70;1.00;;;;;;4855404;29;20072;-85
2023/06/05 02:53:49;;;;;;;1.17;0.93;;;10.80;1.00;;;;;;4842085;29;20097;-85
2023/06/05 02:56:15;;;;;;;0.57;0.43;;;10.80;1.00;;;;;;4860485;29;20120;-86
2023/06/05 02:58:43;;;;;;;0.40;0.40;;;10.80;1.00;;;;;;4861497;29;20049;-85
2023/06/05 03:01:11;;;;;;;0.35;0.35;;;10.80;1.00;;;;;;4861425;29;20100;-85
2023/06/05 03:03:37;;;;;;;0.90;0.43;;;10.80;1.00;;;;;;4843447;29;20053;-85
2023/06/05 03:06:06;;;;;;;0.88;0.85;;;10.80;1.00;;;;;;4846999;29;20053;-86
2023/06/05 03:08:36;;;;;;;0.40;0.32;;;10.80;1.00;;;;;;4843771;29;20492;-85
2023/06/05 03:11:05;;;;;;;0.40;0.40;;;10.90;1.00;;;;;;4858858;29;20504;-85
2023/06/05 03:13:32;;;;;;;0.40;0.40;;;10.80;1.00;;;;;;4861432;29;20173;-86
2023/06/05 03:15:57;;;;;;;;;;;10.90;1.00;;;;;;4851061;29;20477;-86
2023/06/05 03:18:29;;;;;;;0.82;0.82;;;10.90;1.00;;;;;;4828208;29;19923;-85
2023/06/05 03:20:56;;;;;;;0.45;0.25;;;10.80;1.00;;;;;;4847687;29;20049;-85
2023/06/05 03:23:27;;;;;;;0.40;0.40;;;10.80;1.00;;;;;;4861203;29;20140;-86
2023/06/05 03:25:53;;;;;;;0.40;0.30;;;10.80;1.00;;;;;;4841636;29;20057;-86
2023/06/05 03:28:20;;;;;;;0.55;0.45;;;10.70;1.00;;;;;;4857654;29;20128;-86
2023/06/05 03:30:46;;;;;;;;;;;10.60;1.00;;;;;;4842126;29;20068;-86
2023/06/05 03:33:13;;;;;;;1.52;0.60;;;9.90;1.00;;;;;;4856449;29;19919;-85
2023/06/05 03:35:40;;;;;;;0.70;0.70;;;10.60;1.00;;;;;;4855732;29;20065;-85
2023/06/05 03:38:06;;;;;;;0.50;0.50;;;10.60;1.00;;;;;;4859393;29;20049;-86
2023/06/05 03:40:31;;;;;;;0.73;0.73;;;10.50;1.00;;;;;;4845214;29;20382;-86
2023/06/05 03:42:57;;;;;;;0.63;0.63;;;10.50;1.00;;;;;;4859516;29;20057;-85
2023/06/05 03:45:26;;;;;;;1.10;0.53;;;10.40;1.00;;;;;;4851954;29;20063;-85
2023/06/05 03:47:53;;;;;;;0.20;0.20;;;10.40;1.00;;;;;;4837949;29;20133;-87
2023/06/05 03:50:20;;;;;;;0.60;0.50;;;10.40;1.00;;;;;;4857003;29;20551;-85
2023/06/05 03:52:52;;;;;;;1.10;0.82;;;10.30;1.00;;;;;;4860446;29;20124;-85
2023/06/05 03:55:22;;;;;;;0.80;0.70;;;10.30;1.00;;;;;;4859774;29;20164;-85
2023/06/05 03:57:51;;;;;;;0.47;0.47;;;10.20;1.00;;;;;;4844824;29;20052;-86
2023/06/05 04:00:17;;;;;;;0.65;0.52;;;10.30;1.00;;;;;;4859306;29;20492;-86
2023/06/05 04:02:42;;;;;;;0.50;0.50;;;10.20;1.00;;;;;;4861801;29;20041;-86
2023/06/05 04:05:12;;;;;;;0.83;0.40;;;10.20;1.00;;;;;;4844766;29;20057;-86
2023/06/05 04:07:38;;;;;;;0.45;0.45;;;10.20;1.00;;;;;;4845513;29;20121;-87
2023/06/05 04:10:04;;;;;;;;;;;10.10;1.00;;;;;;4859780;29;20045;-85
2023/06/05 04:12:30;;;;;;;0.50;0.40;;;10.20;11.60;;;;;;4859455;29;19939;-85
2023/06/05 04:14:56;;;;;;;0.60;0.40;;;10.20;4.50;;;;;;4847742;29;20055;-87
2023/06/05 04:17:22;;;;;;;0.60;0.40;;;10.10;1.00;;;;;;4832670;29;20144;-85
2023/06/05 04:19:48;;;;;;;0.57;0.40;;;10.20;1.00;;;;;;4840821;29;20168;-85
2023/06/05 04:22:14;;;;;;;0.35;0.30;;;10.20;1.00;;;;;;4859233;29;20053;-86
2023/06/05 04:24:41;;;;;;;0.47;0.47;;;10.20;1.00;;;;;;4863751;29;20125;-85
2023/06/05 04:27:08;;;;;;;;;;;10.20;2.20;;;;;;4831175;29;20075;-85
2023/06/05 04:29:36;;;;;;;0.77;0.45;;;10.30;15.10;;;;;;4863825;29;20274;-85
2023/06/05 04:32:02;;;;;;;0.50;0.25;;;9.60;1.00;;;;;;4847170;29;20056;-85
2023/06/05 04:34:28;;;;;;;0.40;0.40;;;10.30;1.00;;;;;;4863600;29;20053;-85
2023/06/05 04:36:54;;;;;;;0.20;0.20;;;10.40;1.00;;;;;;4863420;29;20084;-85
2023/06/05 04:39:19;;;;;;;0.73;0.73;;;10.50;1.00;;;;;;4862630;29;20045;-86
2023/06/05 04:41:46;;;;;;;0.37;0.37;;;10.50;1.00;;;;;;4820573;29;20057;-86
2023/06/05 04:44:16;;;;;;;0.28;0.28;;;10.50;1.00;;;;;;4857068;29;20113;-85
2023/06/05 04:46:46;;;;;;;0.30;0.30;;;10.60;1.00;;;;;;4853264;29;20088;-85
2023/06/05 04:49:16;;;;;;;0.60;0.47;;;10.70;1.00;;;;;;4823381;29;20500;-85
2023/06/05 04:51:43;;;;;;;0.22;0.22;;;10.80;1.00;;;;;;4858594;29;20054;-85
2023/06/05 04:54:10;;;;;;;0.30;0.30;;;10.90;1.00;;;;;;4856396;29;20055;-85
2023/06/05 04:56:38;;;;;;;;;;;10.90;1.00;;;;;;4858613;29;20501;-86
2023/06/05 04:59:03;;;;;;;0.17;0.17;;;11.00;1.00;;;;;;4855472;29;19971;-86
2023/06/05 05:01:29;;;;;;;1.17;0.67;;;11.10;1.00;;;;;;4835698;29;20072;-85
2023/06/05 05:03:59;;;;;;;0.40;0.35;;;11.10;1.00;;;;;;4856480;29;20068;-85
2023/06/05 05:06:25;;;;;;;1.00;0.80;;;11.30;1.00;;;;;;4874407;29;20049;-86
2023/06/05 05:08:50;;;;;;;0.30;0.30;;;11.50;1.00;;;;;;4843779;29;20184;-86
2023/06/05 05:11:17;;;;;;;0.83;0.43;;;12.10;1.00;;;;;;4869030;29;20057;-85
2023/06/05 05:13:43;;;;;;;0.30;0.30;;;12.90;1.00;;;;;;4843229;29;20301;-86
2023/06/05 05:16:10;;;;;;;0.80;0.68;;;13.60;1.00;;;;;;4852740;29;20049;-85
2023/06/05 05:18:39;;;;;;;0.63;0.57;;;14.10;1.00;;;;;;4852850;29;20132;-86
2023/06/05 05:21:05;;;;;;;3.53;1.13;;;14.60;1.00;;;;;;4839696;29;20189;-85
2023/06/05 05:23:31;;;;;;;0.82;0.70;;;15.00;1.00;;;;;;4863142;29;20045;-84
2023/06/05 05:25:57;;;;;;;;;;;15.40;1.00;;;;;;4850016;29;20053;-85
2023/06/05 05:28:23;;;;;;;0.80;0.60;;;15.70;99.90;;;;;;4829027;29;19937;-85
2023/06/05 05:30:49;;;;;;;2.25;0.95;;;16.10;99.90;;;;;;4855795;29;20507;-85
2023/06/05 05:33:14;;;;;;;0.87;0.87;;;16.30;99.90;;;;;;4856128;29;20049;-86
2023/06/05 05:35:40;;;;;;;0.63;0.63;;;16.40;99.90;;;;;;4861403;29;20298;-86
2023/06/05 05:38:06;;;;;;;1.10;0.95;;;16.60;99.90;;;;;;4840153;29;20049;-84
2023/06/05 05:40:32;;;;;;;0.68;0.40;;;16.60;99.90;;;;;;4846428;29;20096;-87
2023/06/05 05:42:58;;;;;;;0.60;0.47;;;16.80;99.90;;;;;;4860196;29;20072;-88
2023/06/05 05:45:23;;;;;;;0.97;0.87;;;17.00;99.90;;;;;;4845302;29;20477;-87
2023/06/05 05:47:49;;;;;;;0.52;0.52;;;16.90;99.90;;;;;;4845831;29;20060;-88
2023/06/05 05:50:15;;;;;;;0.50;0.50;;;16.90;99.90;;;;;;4828392;29;20064;-85
2023/06/05 05:52:42;;;;;;;0.23;0.23;;;17.00;99.90;;;;;;4815197;29;20069;-86
2023/06/05 05:55:09;;;;;;;0.32;0.25;;;16.90;50.40;;;;;;4856036;29;20132;-88
2023/06/05 05:57:34;;;;;;;0.50;0.28;;;17.00;99.90;;;;;;4857614;29;20045;-87
2023/06/05 06:00:01;;;;;;;0.70;0.40;;;17.00;99.90;;;;;;4856675;29;20075;-88
2023/06/05 06:02:27;;;;;;;0.63;0.63;;;17.00;99.90;;;;;;4853037;29;20049;-87
2023/06/05 06:04:53;;;;;;;;;;;17.20;99.90;;;;;;4843851;29;20048;-85
2023/06/05 06:07:19;;;;;;;0.20;0.20;;;17.40;99.90;;;;;;4844899;29;19924;-84
2023/06/05 06:09:45;;;;;;;0.52;0.38;;;17.70;99.90;;;;;;4863988;29;20484;-90
2023/06/05 06:12:11;;;;;;;0.32;0.32;;;17.60;99.90;;;;;;4829937;29;20049;-85
2023/06/05 06:14:36;;;;;;;0.20;0.17;;;17.60;75.40;;;;;;4847576;29;20484;-86
2023/06/05 06:17:05;;;;;;;0.45;0.30;;;16.80;99.90;;;;;;4844861;29;20140;-86
2023/06/05 06:19:32;;;;;;;0.15;0.15;;;17.60;1.00;;;;;;4872131;29;20056;-84
2023/06/05 06:21:58;;;;;;;0.43;0.30;;;17.50;29.40;;;;;;4817644;29;20080;-84
2023/06/05 06:24:24;;;;;;;0.28;0.28;;;17.40;98.80;;;;;;4821845;29;20498;-83
2023/06/05 06:26:52;;;;;;;0.22;0.22;;;17.50;75.30;;;;;;4842804;29;20061;-85
2023/06/05 06:29:23;;;;;;;0.17;0.17;;;17.50;99.90;;;;;;4858756;29;20058;-85
2023/06/05 06:31:49;;;;;;;0.50;0.50;;;17.70;99.90;;;;;;4837510;29;20054;-86
2023/06/05 06:34:16;;;;;;;0.40;0.25;;;18.00;99.90;;;;;;4852555;29;20098;-87
2023/06/05 06:36:43;;;;;;;0.30;0.30;;;18.00;99.90;;;;;;4855067;29;20386;-84
2023/06/05 06:39:12;;;;;;;0.20;0.20;;;17.80;99.90;;;;;;4840247;29;20049;-85
2023/06/05 06:41:39;;;;;;;0.20;0.20;;;17.80;1.00;;;;;;4845130;29;20056;-85
2023/06/05 06:44:05;;;;;;;;;;;17.70;99.90;;;;;;4845012;29;20102;-91
2023/06/05 06:46:31;;;;;;;0.10;0.10;;;17.40;99.90;;;;;;4864797;29;19931;-82
2023/06/05 06:48:57;;;;;;;0.20;0.20;;;17.00;96.00;;;;;;4856676;29;20052;-83
2023/06/05 06:51:22;;;;;;;0.30;0.30;;;17.10;99.90;;;;;;4859585;29;20056;-81
2023/06/05 06:53:48;;;;;;;0.13;0.13;;;16.90;57.90;;;;;;4861488;29;20145;-82
2023/06/05 06:56:15;;;;;;;0.52;0.30;;;16.50;1.00;;;;;;4861884;29;20051;-83
2023/06/05 06:58:42;;;;;;;0.57;0.45;;;16.70;99.90;;;;;;4860078;29;20054;-83
2023/06/05 07:01:09;;;;;;;0.45;0.40;;;16.70;99.90;;;;;;4846494;29;20135;-83
2023/06/05 07:03:35;;;;;;;;;;;16.70;99.90;;;;;;4863124;29;20060;-83
2023/06/05 07:06:01;;;;;;;0.20;0.20;;;16.90;99.90;;;;;;4860017;29;20025;-84
2023/06/05 07:08:27;;;;;;;0.52;0.20;;;17.20;99.90;;;;;;4858283;29;20508;-82
2023/06/05 07:10:56;;;;;;;0.40;0.40;;;17.40;99.90;;;;;;4842916;29;20053;-80
2023/06/05 07:13:22;;;;;;;0.60;0.35;;;17.40;17.00;;;;;;4838370;29;20045;-83
2023/06/05 07:15:48;;;;;;;;;;;17.40;96.70;;;;;;4874969;29;20084;-83
2023/06/05 07:18:15;;;;;;;1.20;0.35;;;17.30;1.00;;;;;;4861124;29;19923;-82
2023/06/05 07:20:40;;;;;;;;;;;17.40;1.00;;;;;;4876845;29;20128;-84
2023/06/05 07:23:06;;;;;;;0.40;0.20;;;17.80;99.90;;;;;;4877347;29;20018;-84
2023/06/05 07:25:32;;;;;;;0.40;0.20;;;18.10;1.00;;;;;;4860041;29;20048;-84
2023/06/05 07:27:59;;;;;;;;;;;18.30;99.90;;;;;;4876781;29;20101;-83
2023/06/05 07:30:28;;;;;;;0.15;0.15;;;18.50;99.90;;;;;;4861661;29;19924;-82
2023/06/05 07:32:54;;;;;;;0.20;0.20;;;18.60;1.00;;;;;;4861197;29;20108;-84
2023/06/05 07:35:20;;;;;;;0.38;0.38;;;18.80;99.90;;;;;;4877245;29;20041;-84
2023/06/05 07:37:46;;;;;;;0.35;0.30;;;19.10;99.90;;;;;;4862785;29;20075;-81
2023/06/05 07:40:12;;;;;;;0.28;0.28;;;19.10;99.90;;;;;;4845650;29;20104;-82
2023/06/05 07:42:38;;;;;;;0.65;0.28;;;19.20;99.90;;;;;;4875604;29;20056;-83
2023/06/05 07:45:05;;;;;;;0.40;0.25;;;19.20;1.00;;;;;;4872938;29;20048;-83
2023/06/05 07:47:31;;;;;;;0.35;0.30;;;19.40;99.90;;;;;;4842989;29;20071;-84
2023/06/05 07:50:03;;;;;;;0.20;0.20;;;19.50;99.90;;;;;;4859251;29;20499;-84
2023/06/05 07:52:30;;;;;;;0.20;0.20;;;19.70;99.90;;;;;;4859779;29;20056;-84
2023/06/05 07:54:55;;;;;;;0.30;0.30;;;19.80;1.00;;;;;;4860484;29;20386;-83
2023/06/05 07:57:23;;;;;;;0.10;0.10;;;19.70;1.00;;;;;;4872870;29;20060;-84
2023/06/05 07:59:50;;;;;;;1.40;0.40;;;19.50;1.00;;;;;;4846006;29;20045;-84
2023/06/05 08:02:17;;;;;;;0.30;0.30;;;19.50;1.00;;;;;;4860388;29;20060;-84
2023/06/05 08:04:43;;;;;;;0.20;0.20;;;19.60;99.90;;;;;;4877450;29;20048;-84
2023/06/05 08:07:10;;;;;;;0.22;0.22;;;19.70;98.40;;;;;;4833440;29;20060;-83
2023/06/05 08:09:37;;;;;;;0.45;0.45;;;19.80;1.00;;;;;;4863033;29;20448;-84
2023/06/05 08:12:06;;;;;;;0.50;0.30;;;19.80;99.90;;;;;;4863831;29;20059;-83
2023/06/05 08:14:33;;;;;;;0.22;0.13;;;19.70;99.90;;;;;;4837535;29;20053;-84
2023/06/05 08:16:59;;;;;;;0.30;0.30;;;19.80;62.80;;;;;;4844526;29;20089;-84
2023/06/05 08:19:25;;;;;;;0.10;0.10;;;20.00;1.00;;;;;;4861806;29;20125;-84
2023/06/05 08:21:53;;;;;;;0.50;0.50;;;20.10;1.00;;;;;;4861849;29;20081;-84
2023/06/05 08:24:20;;;;;;;0.20;0.20;;;20.00;99.90;;;;;;4845458;29;20053;-84
2023/06/05 08:26:46;;;;;;;0.30;0.10;;;20.10;99.90;;;;;;4844829;29;20049;-84
2023/06/05 08:29:12;;;;;;;0.25;0.25;;;20.20;99.90;;;;;;4829600;29;20060;-84
2023/06/05 08:31:38;;;;;;;0.30;0.30;;;20.10;30.00;;;;;;4844918;29;20060;-84
2023/06/05 08:34:04;;;;;;;;;;;19.90;1.00;;;;;;4845611;29;20485;-84
2023/06/05 08:36:32;;;;;;;0.10;0.10;;;19.90;99.90;;;;;;4844669;29;20371;-82
2023/06/05 08:38:58;;;;;;;0.30;0.30;;;20.00;99.90;;;;;;4861121;29;20060;-84
2023/06/05 08:41:25;;;;;;;0.30;0.30;;;19.90;99.90;;;;;;4860959;29;20089;-86
2023/06/05 08:43:51;;;;;;;;;;;19.40;99.90;;;;;;4844335;29;20160;-86
2023/06/05 08:46:17;;;;;;;0.25;0.25;;;20.10;1.00;;;;;;4843688;29;20363;-87
2023/06/05 08:48:50;;;;;;;0.20;0.20;;;20.20;1.00;;;;;;4844088;29;20519;-87
2023/06/05 08:51:18;;;;;;;0.40;0.40;;;20.30;99.90;;;;;;4830112;29;20060;-89
2023/06/05 08:54:08;;;;;;;0.30;0.17;;;20.20;1.00;;;;;;4844129;29;20049;-84
2023/06/05 08:56:36;;;;;;;0.10;0.10;;;20.10;99.90;;;;;;4832184;29;20097;-86
2023/06/05 08:59:04;;;;;;;0.17;0.17;;;20.20;99.90;;;;;;4829974;29;20092;-85
2023/06/05 09:01:32;;;;;;;0.40;0.40;;;19.60;1.00;;;;;;4829769;29;20084;-85
2023/06/05 09:04:00;;;;;;;1.55;0.45;;;21.10;1.00;;;;;;4844656;29;20083;-86
2023/06/05 09:06:27;;;;;;;0.40;0.35;;;20.40;99.90;;;;;;4845120;29;20045;-87
2023/06/05 09:08:55;;;;;;;0.13;0.13;;;20.30;99.90;;;;;;4844021;29;20050;-87
2023/06/05 09:11:29;;;;;;;0.20;0.20;;;20.30;99.90;;;;;;4829572;29;20086;-87
2023/06/05 09:14:00;;;;;;;0.43;0.43;;;20.40;99.90;;;;;;4844390;29;20069;-88
2023/06/05 09:16:42;;;;;;;0.28;0.28;;;20.30;1.00;;;;;;4842543;29;20061;-87
2023/06/05 09:19:14;;;;;;;0.40;0.40;;;20.30;1.00;;;;;;4826609;29;20057;-85
2023/06/05 09:21:54;;;;;;;0.35;0.35;;;20.30;1.00;;;;;;4841132;29;20136;-87
2023/06/05 09:24:31;;;;;;;0.47;0.47;;;20.40;1.00;;;;;;4824135;29;20130;-87
2023/06/05 09:27:02;;;;;;;0.10;0.10;;;20.20;1.00;;;;;;4841985;29;20054;-87
2023/06/05 09:29:37;;;;;;;0.43;0.20;;;20.40;1.00;;;;;;4841300;29;20065;-87
2023/06/05 09:32:07;;;;;;;0.10;0.10;;;20.30;99.90;;;;;;4823624;29;20049;-87
2023/06/05 09:34:35;;;;;;;0.20;0.20;;;20.30;99.90;;;;;;4825317;29;20053;-83
2023/06/05 09:37:06;;;;;;;0.20;0.20;;;19.60;99.90;;;;;;4842820;29;20065;-84
2023/06/05 09:39:34;;;;;;;0.20;0.20;;;20.50;99.90;;;;;;4810590;29;20042;-84
2023/06/05 09:42:00;;;;;;;0.20;0.20;;;20.50;99.90;;;;;;4840328;29;20053;-84
2023/06/05 09:44:27;;;;;;;0.63;0.52;;;20.60;99.90;;;;;;4841287;29;20182;-83
2023/06/05 09:46:56;;;;;;;0.55;0.30;;;20.60;99.90;;;;;;4825237;29;20058;-85
2023/06/05 09:49:26;;;;;;;0.38;0.30;;;20.50;99.90;;;;;;4845128;29;20076;-83
2023/06/05 09:51:52;;;;;;;0.20;0.20;;;20.60;99.90;;;;;;4844866;29;20061;-83
2023/06/05 09:54:20;;;;;;;0.20;0.20;;;20.70;99.90;;;;;;4814227;29;20420;-84
2023/06/05 09:56:49;;;;;;;0.25;0.25;;;20.60;99.90;;;;;;4843287;29;20055;-84
2023/06/05 09:59:24;;;;;;;0.30;0.30;;;20.70;99.90;;;;;;4843950;29;20050;-84
2023/06/05 10:01:54;;;;;;;0.20;0.20;;;20.60;99.90;;;;;;4828642;29;20508;-84
2023/06/05 10:04:23;;;;;;;0.28;0.25;;;20.80;99.90;;;;;;4860631;29;20085;-84
2023/06/05 10:06:52;;;;;;;0.10;0.10;;;20.60;99.90;;;;;;4827929;29;20053;-84
2023/06/05 10:09:24;;;;;;;0.32;0.30;;;20.70;99.90;;;;;;4829434;29;20053;-84
2023/06/05 10:11:50;;;;;;;0.40;0.22;;;20.70;99.90;;;;;;4843283;29;20058;-83
2023/06/05 10:14:17;;;;;;;0.22;0.22;;;20.60;74.00;;;;;;4828232;29;20053;-84
2023/06/05 10:16:44;;;;;;;0.40;0.20;;;20.60;99.90;;;;;;4842761;29;20081;-84
2023/06/05 10:19:11;;;;;;;0.52;0.50;;;20.70;99.90;;;;;;4816637;29;20057;-84
2023/06/05 10:21:40;;;;;;;1.90;0.45;;;20.70;99.90;;;;;;4824619;29;20061;-84
2023/06/05 10:24:22;;;;;;;0.17;0.17;;;20.70;99.90;;;;;;4840051;29;20142;-84
2023/06/05 10:27:16;;;;;;;0.30;0.25;;;20.80;99.90;;;;;;4825015;29;20054;-84
2023/06/05 10:30:14;;;;;;;0.30;0.30;;;21.00;1.00;;;;;;4825424;29;20058;-84
2023/06/05 10:32:51;;;;;;;;;;;21.00;1.00;;;;;;4825718;29;20137;-83
2023/06/05 10:36:05;;;;;;;0.25;0.25;;;21.10;1.00;;;;;;4841470;29;19924;-84
2023/06/05 10:38:32;;;;;;;0.45;0.30;;;21.00;1.00;;;;;;4806620;29;20062;-83
2023/06/05 10:41:00;;;;;;;0.28;0.28;;;21.10;99.90;;;;;;4809379;29;20054;-83
2023/06/05 10:43:47;;;;;;;0.52;0.52;;;21.10;96.00;;;;;;4825362;29;20050;-83
2023/06/05 10:46:31;;;;;;;0.57;0.40;;;21.20;1.00;;;;;;4840309;29;20202;-82
2023/06/05 10:49:19;;;;;;;0.35;0.30;;;21.20;1.00;;;;;;4832306;29;20057;-83
2023/06/05 10:51:45;;;;;;;0.30;0.30;;;21.40;1.00;;;;;;4859607;29;20060;-83
2023/06/05 10:54:15;;;;;;;0.10;0.10;;;21.40;23.80;;;;;;4830382;29;20128;-82
2023/06/05 10:57:03;;;;;;;0.85;0.57;;;21.50;99.90;;;;;;4846959;29;20046;-83
2023/06/05 10:59:37;;;;;;;0.22;0.20;;;21.60;1.00;;;;;;4863015;29;20053;-83
2023/06/05 11:02:14;;;;;;;0.20;0.20;;;21.70;1.00;;;;;;4862572;29;20058;-83
2023/06/05 11:04:46;;;;;;;0.32;0.30;;;21.70;1.00;;;;;;4831510;29;20053;-85
2023/06/05 11:07:29;;;;;;;0.10;0.10;;;21.70;1.00;;;;;;4832322;29;20409;-86
2023/06/05 11:10:08;;;;;;;0.38;0.38;;;21.80;1.00;;;;;;4834092;29;20053;-83
2023/06/05 11:12:40;;;;;;;0.10;0.10;;;21.90;99.90;;;;;;4847733;29;20053;-84
2023/06/05 11:15:14;;;;;;;0.50;0.30;;;22.00;1.00;;;;;;4846639;29;20086;-85
2023/06/05 11:17:44;;;;;;;0.22;0.22;;;22.00;1.00;;;;;;4846815;29;20058;-84
2023/06/05 11:20:29;;;;;;;0.75;0.47;;;22.10;1.00;;;;;;4830102;29;20053;-85
2023/06/05 11:22:57;;;;;;;0.22;0.22;;;22.90;99.90;;;;;;4827927;29;20083;-84
2023/06/05 11:25:32;;;;;;;0.30;0.30;;;22.10;99.90;;;;;;4828329;29;20042;-85
2023/06/05 11:28:11;;;;;;;0.20;0.20;;;22.10;99.90;;;;;;4827464;29;20186;-85
2023/06/05 11:30:44;;;;;;;0.65;0.45;;;22.10;99.90;;;;;;4813096;29;20053;-85
2023/06/05 11:33:13;;;;;;;0.28;0.28;;;22.10;99.90;;;;;;4812063;29;20057;-84
2023/06/05 11:35:41;;;;;;;0.28;0.22;;;22.20;99.90;;;;;;4827428;29;20106;-85
2023/06/05 11:38:10;;;;;;;0.20;0.20;;;22.30;99.90;;;;;;4826233;29;20097;-85
2023/06/05 11:40:38;;;;;;;0.30;0.30;;;22.30;99.90;;;;;;4827122;29;20050;-84
2023/06/05 11:43:09;;;;;;;0.30;0.30;;;22.20;99.90;;;;;;4843422;29;20053;-85
2023/06/05 11:45:36;;;;;;;0.38;0.38;;;22.40;99.90;;;;;;4827494;29;20061;-85
2023/06/05 11:48:12;;;;;;;0.20;0.20;;;22.40;99.90;;;;;;4826871;29;20462;-85
2023/06/05 11:50:51;;;;;;;1.75;0.40;;;22.40;99.90;;;;;;4823381;29;20378;-85
2023/06/05 11:53:17;;;;;;;0.20;0.20;;;22.40;99.90;;;;;;4845105;29;20108;-85
2023/06/05 11:55:54;;;;;;;0.25;0.25;;;22.40;99.90;;;;;;4845745;29;20493;-85
2023/06/05 11:58:39;;;;;;;0.30;0.30;;;22.30;99.90;;;;;;4862176;29;20057;-85
2023/06/05 12:01:17;;;;;;;0.45;0.38;;;22.60;99.90;;;;;;4845088;29;20056;-87
2023/06/05 12:04:01;;;;;;;0.85;0.55;;;22.70;99.90;;;;;;4830057;29;20049;-87
2023/06/05 12:06:29;;;;;;;0.50;0.50;;;22.80;99.90;;;;;;4830099;29;20110;-87
2023/06/05 12:09:10;;;;;;;0.30;0.30;;;22.80;99.90;;;;;;4845102;29;20049;-88
2023/06/05 12:11:37;;;;;;;0.47;0.35;;;22.80;99.90;;;;;;4845517;29;20178;-84
2023/06/05 12:14:09;;;;;;;0.57;0.57;;;22.70;99.90;;;;;;4844463;29;20053;-88
2023/06/05 12:16:47;;;;;;;0.47;0.30;;;22.70;99.90;;;;;;4844952;29;20410;-87
2023/06/05 12:19:34;;;;;;;0.60;0.30;;;22.70;99.90;;;;;;4829517;29;20049;-87
2023/06/05 12:22:26;;;;;;;0.35;0.35;;;22.80;99.90;;;;;;4828660;29;20124;-88
2023/06/05 12:25:13;;;;;;;0.32;0.30;;;22.80;99.90;;;;;;4830514;29;20156;-87
2023/06/05 12:27:48;;;;;;;0.45;0.40;;;22.90;99.90;;;;;;4830363;29;20068;-87
2023/06/05 12:30:46;;;;;;;0.28;0.17;;;22.80;99.90;;;;;;4829017;29;20132;-87
2023/06/05 12:33:32;;;;;;;;;;;23.00;99.90;;;;;;4830114;29;20045;-87
2023/06/05 12:36:10;;;;;;;0.38;0.30;;;23.00;99.90;;;;;;4814021;29;19924;-87
2023/06/05 12:38:42;;;;;;;0.30;0.30;;;23.10;99.90;;;;;;4845348;29;20049;-87
2023/06/05 12:41:17;;;;;;;0.70;0.47;;;23.10;99.90;;;;;;4813864;29;20045;-87
2023/06/05 12:43:58;;;;;;;0.55;0.20;;;23.20;99.90;;;;;;4829604;29;20049;-87
2023/06/05 12:46:29;;;;;;;0.40;0.20;;;23.10;99.90;;;;;;4845149;29;20110;-87
2023/06/05 12:49:23;;;;;;;0.43;0.43;;;23.00;99.90;;;;;;4815010;29;20492;-87
2023/06/05 12:52:05;;;;;;;0.35;0.28;;;23.50;99.90;;;;;;4828012;29;20065;-87
2023/06/05 12:54:50;;;;;;;;;;;;;;;;;;;;;
2023/06/05 12:57:28;;;;;;;0.20;0.20;;;22.30;99.90;;;;;;4844422;29;20045;-87
2023/06/05 13:00:39;;;;;;;;;;;;;;;;;;;;;
2023/06/05 13:03:12;;;;;;;0.30;0.30;;;23.10;99.90;;;;;;4832663;29;20091;-88
2023/06/05 13:05:44;;;;;;;0.22;0.22;;;23.00;99.90;;;;;;4844986;29;20126;-87
2023/06/05 13:08:34;;;;;;;;;;;;;;;;;;;;;
2023/06/05 13:11:19;;;;;;;0.65;0.30;;;23.20;99.90;;;;;;4844527;29;20048;-87
2023/06/05 13:13:45;;;;;;;0.70;0.65;;;23.20;99.90;;;;;;4815444;29;20045;-87